createdAt,value
2023-03-22T00:01:31.261Z,5.70
2023-03-22T00:05:33.164Z,5.17
2023-03-22T00:09:34.925Z,6.37
2023-03-22T00:13:39.890Z,5.60
2023-03-22T00:17:42.477Z,6.90
2023-03-22T00:21:44.853Z,5.90
2023-03-22T00:25:47.102Z,5.60
2023-03-22T00:29:48.970Z,7.07
2023-03-22T00:33:50.870Z,10.47
2023-03-22T00:37:52.810Z,7.10
2023-03-22T00:41:54.759Z,7.63
2023-03-22T00:45:56.622Z,6.50
2023-03-22T00:49:58.578Z,5.77
2023-03-22T00:54:00.804Z,5.50
2023-03-22T00:58:02.592Z,5.20
2023-03-22T01:02:05.607Z,6.67
2023-03-22T01:06:08.425Z,6.10
2023-03-22T01:10:11.422Z,5.83
2023-03-22T01:14:13.972Z,6.47
2023-03-22T01:18:15.938Z,6.87
2023-03-22T01:22:17.744Z,5.10
2023-03-22T01:26:19.572Z,5.47
2023-03-22T01:30:22.527Z,6.83
2023-03-22T01:34:24.420Z,6.17
2023-03-22T01:38:26.430Z,5.70
2023-03-22T01:42:28.541Z,6.67
2023-03-22T01:46:30.535Z,5.63
2023-03-22T01:50:32.534Z,6.33
2023-03-22T01:54:42.899Z,6.00
2023-03-22T01:58:44.702Z,7.10
2023-03-22T02:02:49.365Z,5.23
2023-03-22T02:06:54.425Z,6.47
2023-03-22T02:10:56.241Z,6.47
2023-03-22T02:15:27.932Z,5.80
2023-03-22T02:19:45.649Z,6.03
2023-03-22T02:25:00.590Z,7.03
2023-03-22T02:29:13.958Z,5.77
2023-03-22T02:33:35.866Z,7.13
2023-03-22T02:37:59.230Z,5.70
2023-03-22T02:42:17.526Z,6.27
2023-03-22T02:46:37.859Z,5.07
2023-03-22T02:50:46.598Z,7.10
2023-03-22T02:54:56.226Z,5.80
2023-03-22T02:59:01.191Z,6.70
2023-03-22T03:03:21.861Z,5.27
2023-03-22T03:07:32.782Z,5.00
2023-03-22T03:11:40.845Z,7.10
2023-03-22T03:16:03.149Z,6.93
2023-03-22T03:20:55.765Z,5.30
2023-03-22T03:25:19.788Z,6.60
2023-03-22T03:29:36.075Z,5.40
2023-03-22T03:33:44.237Z,5.10
2023-03-22T03:37:49.588Z,6.83
2023-03-22T03:41:51.518Z,4.77
2023-03-22T03:45:54.845Z,4.90
2023-03-22T03:49:56.965Z,3.57
2023-03-22T03:53:58.886Z,5.43
2023-03-22T03:58:00.775Z,4.03
2023-03-22T04:02:02.747Z,5.30
2023-03-22T04:06:05.068Z,4.27
2023-03-22T04:10:07.854Z,5.10
2023-03-22T04:14:09.769Z,4.47
2023-03-22T04:18:11.580Z,3.87
2023-03-22T04:22:14.890Z,5.27
2023-03-22T04:26:16.784Z,4.10
2023-03-22T04:30:23.044Z,4.83
2023-03-22T04:34:24.858Z,6.03
2023-03-22T04:38:26.667Z,4.63
2023-03-22T04:42:28.715Z,4.93
2023-03-22T04:46:31.511Z,5.03
2023-03-22T04:50:33.482Z,4.33
2023-03-22T04:54:35.356Z,4.93
2023-03-22T04:58:42.131Z,5.73
2023-03-22T05:02:44.158Z,5.50
2023-03-22T05:06:46.616Z,6.00
2023-03-22T05:10:52.456Z,6.40
2023-03-22T05:14:59.836Z,5.87
2023-03-22T05:19:02.528Z,5.73
2023-03-22T05:23:07.174Z,5.77
2023-03-22T05:27:11.058Z,5.50
2023-03-22T05:31:15.704Z,8.50
2023-03-22T05:35:20.816Z,6.20
2023-03-22T05:39:25.566Z,5.33
2023-03-22T05:43:29.972Z,5.30
2023-03-22T05:47:31.899Z,6.97
2023-03-22T05:51:35.255Z,6.77
2023-03-22T05:55:59.056Z,9.03
2023-03-22T06:00:01.936Z,5.37
2023-03-22T06:04:10.133Z,8.10
2023-03-22T06:08:18.467Z,9.13
2023-03-22T06:12:40.590Z,7.50
2023-03-22T06:16:43.156Z,7.13
2023-03-22T06:20:45.034Z,7.70
2023-03-22T06:24:47.748Z,6.20
2023-03-22T06:28:49.610Z,7.60
2023-03-22T06:32:51.607Z,7.97
2023-03-22T06:36:53.589Z,7.13
2023-03-22T06:40:55.669Z,7.17
2023-03-22T06:44:57.854Z,9.47
2023-03-22T06:48:59.792Z,6.40
2023-03-22T06:53:01.698Z,6.43
2023-03-22T06:57:04.006Z,6.43
2023-03-22T07:01:06.210Z,7.07
2023-03-22T07:05:08.731Z,6.50
2023-03-22T07:09:10.730Z,7.40
2023-03-22T07:13:12.594Z,7.67
2023-03-22T07:17:14.482Z,6.53
2023-03-22T07:21:16.374Z,7.33
2023-03-22T07:25:20.963Z,5.87
2023-03-22T07:29:37.724Z,5.03
2023-03-22T07:33:42.494Z,6.53
2023-03-22T07:37:45.019Z,5.50
2023-03-22T07:41:47.119Z,7.10
2023-03-22T07:45:50.013Z,6.03
2023-03-22T07:49:51.813Z,5.13
2023-03-22T07:53:53.666Z,7.13
2023-03-22T07:57:56.462Z,6.13
2023-03-22T08:01:58.473Z,6.30
2023-03-22T08:06:06.545Z,7.00
2023-03-22T08:10:09.169Z,6.20
2023-03-22T08:14:11.285Z,4.57
2023-03-22T08:18:13.292Z,4.43
2023-03-22T08:22:15.485Z,3.77
2023-03-22T08:26:17.939Z,4.90
2023-03-22T08:30:22.431Z,4.10
2023-03-22T08:34:24.452Z,3.80
2023-03-22T08:38:26.319Z,3.30
2023-03-22T08:42:28.252Z,3.87
2023-03-22T08:46:30.138Z,2.93
2023-03-22T08:50:34.566Z,3.10
2023-03-22T08:54:41.675Z,2.53
2023-03-22T08:58:46.717Z,3.53
2023-03-22T09:02:51.274Z,3.20
2023-03-22T09:06:53.088Z,2.93
2023-03-22T09:10:55.079Z,2.27
2023-03-22T09:14:57.056Z,2.90
2023-03-22T09:18:58.937Z,3.90
2023-03-22T09:23:00.729Z,2.17
2023-03-22T09:27:03.408Z,2.37
2023-03-22T09:31:08.073Z,2.37
2023-03-22T09:35:10.107Z,2.47
2023-03-22T09:39:12.959Z,2.67
2023-03-22T09:43:14.739Z,2.43
2023-03-22T09:47:43.856Z,2.23
2023-03-22T09:51:51.084Z,1.83
2023-03-22T09:56:06.297Z,1.50
2023-03-22T10:00:22.287Z,2.27
2023-03-22T10:04:30.124Z,1.50
2023-03-22T10:09:00.248Z,3.07
2023-03-22T10:13:48.422Z,2.33
2023-03-22T10:17:53.645Z,2.37
2023-03-22T10:21:55.870Z,1.43
2023-03-22T10:26:01.153Z,1.63
2023-03-22T10:30:28.358Z,1.70
2023-03-22T10:34:33.956Z,1.43
2023-03-22T10:38:44.956Z,1.63
2023-03-22T10:42:54.456Z,1.50
2023-03-22T10:46:57.303Z,3.27
2023-03-22T10:51:04.830Z,3.67
2023-03-22T10:55:11.855Z,3.00
2023-03-22T10:59:43.504Z,2.47
2023-03-22T11:03:52.060Z,1.80
2023-03-22T11:07:54.094Z,1.33
2023-03-22T11:12:00.137Z,2.17
2023-03-22T11:16:02.668Z,1.57
2023-03-22T11:20:12.364Z,2.17
2023-03-22T11:24:16.542Z,1.50
2023-03-22T11:28:26.916Z,2.93
2023-03-22T11:32:32.908Z,2.17
2023-03-22T11:36:43.890Z,1.80
2023-03-22T11:40:52.769Z,2.13
2023-03-22T11:44:55.593Z,1.30
2023-03-22T11:49:03.366Z,1.80
2023-03-22T11:53:08.967Z,1.33
2023-03-22T11:57:17.497Z,1.27
2023-03-22T12:01:58.648Z,1.33
2023-03-22T12:06:05.903Z,1.30
2023-03-22T12:10:21.812Z,1.50
2023-03-22T12:14:41.216Z,1.43
2023-03-22T12:19:36.652Z,1.50
2023-03-22T12:23:38.615Z,2.53
2023-03-22T12:27:43.107Z,1.77
2023-03-22T12:32:08.672Z,2.63
2023-03-22T12:36:13.903Z,2.50
2023-03-22T12:40:28.699Z,1.80
2023-03-22T12:44:38.441Z,1.40
2023-03-22T12:48:53.318Z,1.20
2023-03-22T12:52:57.052Z,2.17
2023-03-22T12:56:59.132Z,0.97
2023-03-22T13:01:19.643Z,1.10
2023-03-22T13:05:21.840Z,2.17
2023-03-22T13:09:29.475Z,1.10
2023-03-22T13:13:49.490Z,1.93
2023-03-22T13:17:51.419Z,3.63
2023-03-22T13:22:17.959Z,5.23
2023-03-22T13:26:20.284Z,1.33
2023-03-22T13:30:32.799Z,2.00
2023-03-22T13:34:49.221Z,1.70
2023-03-22T13:39:04.739Z,1.43
2023-03-22T13:43:27.811Z,1.90
2023-03-22T13:47:43.182Z,2.43
2023-03-22T13:51:45.478Z,1.40
2023-03-22T13:55:58.921Z,1.20
2023-03-22T14:00:22.368Z,1.53
2023-03-22T14:04:30.290Z,1.93
2023-03-22T14:08:36.111Z,1.70
2023-03-22T14:13:21.224Z,1.23
2023-03-22T14:17:41.225Z,1.80
